Washington/Dulles

Airport
ICAO code: 
KIAD
Summary
ICAO Region: 
NAM
Territory: 
Location: 
Dulles, Virginia,
Elevation: 
312 ft
Coordinates: 
Aerial View: 
38° 57' 3.272" N, 77° 26' 51.481" W
Airport LOS: 
Parallel Runway Operation
Metar
Observation
KIAD 210352Z 34010KT 10SM CLR M03/M13 A3041 RMK AO2 SLP300 T10331133
Station
Washington DC, Washington-Dulles International Airport
Date/Time
2022-01-21 03:52:00
Wind direction
340°
Wind speed
10 kts
Lowest cloud amount
n/a
Temperature
-3.3°C
Dew point
-13.3°C
Humidity
45%
Weather condition
n/a

Description

Washington Dulles International Airport is a public airport located 41.6 km west of the central business district of Washington, D.C., in Dulles, Virginia. It serves the greater Washington, D.C., metropolitan area.

Climatology

Humid “subtropical” climate (Köppen climate classification Cfa) - characterized by hot, humid summers and cool winters. Significant amounts of precipitation occur in all seasons in most areas. Winter rainfall (and sometimes snowfall) is associated with large storms that the westerlies steer from west to east. Most summer rainfall occurs during thunderstorms and occasional tropical storms (hurricanes).

Runways

Designator Length Width Surface Rops
12/30 3201 46 CON Yes/Yes
01R/19L 3505 46 CON Yes/Yes
01C/19C 3506 46 CONC-G Yes/Yes
01L/19R 3506 46 CON Yes/Yes
Airport map: 
Aerial View: 

Accidents and Serious Incidents at or in the vicinity of KIAD

SKYbrary Partners:

Safety knowledge contributed by: